Time;durP1;ratioP1;P1;durP2;ratioP2;P2;SDS_P1;SDS_P2;PMS_P1;PMS_P2;Temp;Humidity;BMP_temperature;BMP_pressure;BME280_temperature;BME280_humidity;BME280_pressure;Samples;Min_cycle;Max_cycle;Signal;HPM_P1;HPM_P2
2022/08/21 00:00:39;;;;;;;4.30;3.80;;;16.80;99.90;;;;;;4984441;28;20176;-65
2022/08/21 00:03:07;;;;;;;3.40;3.10;;;16.80;99.90;;;;;;4987084;28;20191;-65
2022/08/21 00:05:36;;;;;;;5.33;3.10;;;17.30;99.90;;;;;;4986749;28;20446;-65
2022/08/21 00:08:02;;;;;;;8.50;3.10;;;16.70;99.90;;;;;;4983636;28;20902;-65
2022/08/21 00:10:28;;;;;;;5.50;4.23;;;16.70;99.90;;;;;;4987591;28;20441;-65
2022/08/21 00:12:53;;;;;;;3.47;3.17;;;16.60;99.90;;;;;;4983692;28;21116;-65
2022/08/21 00:15:25;;;;;;;4.17;3.77;;;16.60;99.90;;;;;;4988379;28;20286;-65
2022/08/21 00:17:51;;;;;;;3.67;3.27;;;16.60;99.90;;;;;;4985278;28;20545;-65
2022/08/21 00:20:17;;;;;;;3.53;3.00;;;16.70;99.90;;;;;;4985821;28;20430;-65
2022/08/21 00:22:43;;;;;;;5.97;3.90;;;16.70;99.90;;;;;;4990678;28;20207;-65
2022/08/21 00:25:09;;;;;;;4.07;3.70;;;16.60;99.90;;;;;;4981373;28;20644;-65
2022/08/21 00:27:36;;;;;;;3.83;3.17;;;16.50;99.90;;;;;;4982274;28;20181;-65
2022/08/21 00:30:04;;;;;;;6.30;3.40;;;16.50;99.90;;;;;;4989381;28;20450;-65
2022/08/21 00:32:29;;;;;;;3.10;2.77;;;16.50;99.90;;;;;;4982748;28;20455;-64
2022/08/21 00:34:55;;;;;;;3.40;3.00;;;16.50;99.90;;;;;;4988011;28;20492;-64
2022/08/21 00:37:21;;;;;;;3.50;3.20;;;16.50;99.90;;;;;;4981506;28;20598;-65
2022/08/21 00:39:47;;;;;;;6.10;2.93;;;16.50;99.90;;;;;;4986231;28;20468;-64
2022/08/21 00:42:15;;;;;;;8.70;5.37;;;16.40;99.90;;;;;;4986706;28;20202;-65
2022/08/21 00:44:46;;;;;;;5.80;3.77;;;16.40;99.90;;;;;;4988635;28;20172;-65
2022/08/21 00:47:11;;;;;;;5.03;3.67;;;16.40;99.90;;;;;;4979364;28;20810;-64
2022/08/21 00:49:39;;;;;;;3.70;3.17;;;16.40;99.90;;;;;;4985566;28;20458;-65
2022/08/21 00:52:08;;;;;;;4.27;3.33;;;16.40;99.90;;;;;;4986898;28;20581;-64
2022/08/21 00:54:34;;;;;;;4.80;3.50;;;16.40;99.90;;;;;;4987970;28;20497;-64
2022/08/21 00:57:03;;;;;;;3.37;3.07;;;16.30;99.90;;;;;;4985433;28;20623;-65
2022/08/21 00:59:32;;;;;;;3.00;2.80;;;16.30;99.90;;;;;;4989389;28;20242;-64
2022/08/21 01:01:57;;;;;;;3.73;3.33;;;16.30;99.90;;;;;;4982094;28;20468;-64
2022/08/21 01:04:23;;;;;;;3.27;3.00;;;16.30;99.90;;;;;;4987302;28;20857;-65
2022/08/21 01:06:51;;;;;;;5.70;3.77;;;16.20;99.90;;;;;;4981884;28;20175;-64
2022/08/21 01:09:17;;;;;;;4.90;3.60;;;16.20;99.90;;;;;;4987503;28;21000;-64
2022/08/21 01:11:43;;;;;;;3.00;2.80;;;16.10;99.90;;;;;;4991624;28;20446;-65
2022/08/21 01:14:11;;;;;;;5.20;4.30;;;16.10;99.90;;;;;;4987754;28;20439;-65
2022/08/21 01:16:39;;;;;;;3.83;3.30;;;16.10;99.90;;;;;;4991473;28;20177;-64
2022/08/21 01:19:08;;;;;;;4.97;3.77;;;16.10;99.90;;;;;;4986817;28;20455;-65
2022/08/21 01:21:33;;;;;;;3.93;3.40;;;16.00;99.90;;;;;;4985382;28;20439;-64
2022/08/21 01:23:59;;;;;;;4.20;3.80;;;16.00;99.90;;;;;;4988996;28;20810;-64
2022/08/21 01:26:30;;;;;;;3.80;2.97;;;16.00;99.90;;;;;;4986746;28;20180;-65
2022/08/21 01:29:06;;;;;;;5.37;3.13;;;16.00;99.90;;;;;;4981553;28;20234;-65
2022/08/21 01:31:32;;;;;;;3.87;3.67;;;15.90;99.90;;;;;;4984200;28;20486;-64
2022/08/21 01:33:58;;;;;;;4.10;3.37;;;15.90;99.90;;;;;;4987247;28;20982;-65
2022/08/21 01:36:25;;;;;;;3.73;3.37;;;15.90;99.90;;;;;;4988571;28;20846;-64
2022/08/21 01:38:50;;;;;;;5.00;3.97;;;16.10;99.90;;;;;;4980023;28;20953;-65
2022/08/21 01:41:17;;;;;;;4.03;3.73;;;15.80;99.90;;;;;;4983871;28;20435;-65
2022/08/21 01:43:44;;;;;;;4.63;4.03;;;15.80;99.90;;;;;;4986880;28;20286;-64
2022/08/21 01:46:11;;;;;;;3.73;3.43;;;15.80;99.90;;;;;;4982905;28;20431;-64
2022/08/21 01:48:37;;;;;;;4.73;3.63;;;15.80;99.90;;;;;;4987492;28;20546;-65
2022/08/21 01:51:04;;;;;;;4.50;3.53;;;15.80;99.90;;;;;;4988262;28;20439;-64
2022/08/21 01:53:29;;;;;;;6.40;4.10;;;15.80;99.90;;;;;;4987388;28;20447;-65
2022/08/21 01:55:55;;;;;;;4.97;3.63;;;15.90;99.90;;;;;;4993754;28;20445;-65
2022/08/21 01:58:21;;;;;;;5.50;3.90;;;15.60;99.90;;;;;;4987633;28;20214;-65
2022/08/21 02:00:46;;;;;;;4.43;4.03;;;15.70;99.90;;;;;;4990736;28;20247;-64
2022/08/21 02:03:12;;;;;;;4.30;3.90;;;15.60;99.90;;;;;;4984852;28;20203;-64
2022/08/21 02:05:37;;;;;;;5.40;3.87;;;15.60;99.90;;;;;;4992487;28;20164;-64
2022/08/21 02:08:05;;;;;;;6.47;3.30;;;15.60;99.90;;;;;;4990960;28;20167;-65
2022/08/21 02:10:31;;;;;;;5.17;3.77;;;15.60;99.90;;;;;;4990100;28;20180;-65
2022/08/21 02:13:00;;;;;;;10.13;5.73;;;15.60;99.90;;;;;;4991023;28;20440;-64
2022/08/21 02:15:27;;;;;;;6.93;4.40;;;15.50;99.90;;;;;;4992482;28;20450;-65
2022/08/21 02:18:00;;;;;;;4.93;4.40;;;15.50;99.90;;;;;;4984772;28;20859;-65
2022/08/21 02:20:27;;;;;;;4.30;3.10;;;15.50;99.90;;;;;;4984522;28;20525;-65
2022/08/21 02:22:53;;;;;;;4.80;3.80;;;15.50;99.90;;;;;;4989191;28;20455;-65
2022/08/21 02:25:21;;;;;;;3.90;3.40;;;15.70;99.90;;;;;;4991887;28;20430;-64
2022/08/21 02:27:48;;;;;;;5.17;4.03;;;15.50;99.90;;;;;;4990087;28;20435;-64
2022/08/21 02:30:23;;;;;;;5.10;4.10;;;15.70;99.90;;;;;;4981465;28;21035;-64
2022/08/21 02:32:49;;;;;;;5.40;3.53;;;15.50;99.90;;;;;;4983821;28;20468;-64
2022/08/21 02:35:15;;;;;;;4.90;4.07;;;15.30;99.90;;;;;;4983178;28;20524;-65
2022/08/21 02:38:01;;;;;;;5.60;4.80;;;15.30;99.90;;;;;;4987776;28;20186;-65
2022/08/21 02:40:30;;;;;;;5.63;4.50;;;15.20;99.90;;;;;;4989193;28;20335;-64
2022/08/21 02:42:56;;;;;;;4.37;3.93;;;15.30;99.90;;;;;;4986162;28;20538;-65
2022/08/21 02:45:22;;;;;;;4.90;4.23;;;15.20;99.90;;;;;;4986284;28;20849;-64
2022/08/21 02:47:54;;;;;;;6.13;4.07;;;15.20;99.90;;;;;;4979707;28;20437;-65
2022/08/21 02:50:44;;;;;;;6.27;3.73;;;15.20;99.90;;;;;;4979937;28;20289;-65
2022/08/21 02:53:11;;;;;;;4.80;4.33;;;15.20;99.90;;;;;;4990560;28;20454;-65
2022/08/21 02:55:37;;;;;;;4.03;3.53;;;15.20;99.90;;;;;;4986263;28;20442;-64
2022/08/21 02:58:05;;;;;;;8.10;4.80;;;15.20;99.90;;;;;;4982042;28;20462;-65
2022/08/21 03:00:32;;;;;;;5.47;4.07;;;15.10;99.90;;;;;;4988031;28;20493;-65
2022/08/21 03:02:58;;;;;;;5.70;3.70;;;15.10;99.90;;;;;;4989385;28;20549;-65
2022/08/21 03:05:26;;;;;;;3.57;3.27;;;15.10;99.90;;;;;;4987231;28;20531;-65
2022/08/21 03:07:52;;;;;;;4.30;3.90;;;15.20;99.90;;;;;;4981739;28;20442;-64
2022/08/21 03:10:20;;;;;;;4.53;3.90;;;15.20;99.90;;;;;;4985356;28;21529;-65
2022/08/21 03:12:46;;;;;;;4.40;3.87;;;15.10;99.90;;;;;;4980234;28;20454;-64
2022/08/21 03:15:17;;;;;;;4.10;3.70;;;15.10;99.90;;;;;;4984981;28;20778;-65
2022/08/21 03:17:42;;;;;;;7.20;4.73;;;15.00;99.90;;;;;;4987151;28;21017;-64
2022/08/21 03:20:09;;;;;;;5.00;4.50;;;14.90;99.90;;;;;;4984177;28;20546;-65
2022/08/21 03:22:35;;;;;;;3.73;3.43;;;15.00;99.90;;;;;;4982811;28;20231;-65
2022/08/21 03:25:01;;;;;;;5.10;4.47;;;14.90;99.90;;;;;;4987241;28;20458;-65
2022/08/21 03:27:28;;;;;;;6.77;4.93;;;14.90;99.90;;;;;;4990574;28;20182;-65
2022/08/21 03:29:54;;;;;;;4.07;3.67;;;14.90;99.90;;;;;;4976805;28;20799;-65
2022/08/21 03:32:20;;;;;;;6.80;4.07;;;14.90;99.90;;;;;;4981874;28;20786;-65
2022/08/21 03:34:46;;;;;;;3.93;3.57;;;14.80;99.90;;;;;;4984701;28;20437;-65
2022/08/21 03:37:13;;;;;;;4.50;4.10;;;14.70;99.90;;;;;;4979490;28;20443;-65
2022/08/21 03:39:39;;;;;;;4.50;4.10;;;14.70;99.90;;;;;;4980171;28;20470;-64
2022/08/21 03:42:06;;;;;;;4.00;3.70;;;14.80;99.90;;;;;;4973785;28;20455;-64
2022/08/21 03:44:31;;;;;;;7.90;4.67;;;14.50;99.90;;;;;;4983188;28;20176;-64
2022/08/21 03:46:57;;;;;;;5.33;4.47;;;14.60;99.90;;;;;;4981640;28;20437;-65
2022/08/21 03:49:24;;;;;;;5.17;4.43;;;14.70;99.90;;;;;;4986962;28;20197;-65
2022/08/21 03:51:49;;;;;;;7.03;4.43;;;14.70;99.90;;;;;;4982316;28;20447;-64
2022/08/21 03:54:15;;;;;;;7.07;4.30;;;14.80;99.90;;;;;;4985810;28;20959;-64
2022/08/21 03:56:41;;;;;;;5.63;3.97;;;14.80;99.90;;;;;;4985721;28;20175;-64
2022/08/21 03:59:07;;;;;;;5.70;3.70;;;14.80;99.90;;;;;;4987447;28;20533;-64
2022/08/21 04:01:33;;;;;;;5.70;4.03;;;14.80;99.90;;;;;;4982373;28;20183;-65
2022/08/21 04:03:59;;;;;;;8.10;4.40;;;14.70;99.90;;;;;;4987914;28;20457;-65
2022/08/21 04:06:26;;;;;;;4.77;4.27;;;14.70;99.90;;;;;;4981510;28;20650;-64
2022/08/21 04:08:52;;;;;;;5.07;4.67;;;14.70;99.90;;;;;;4987542;28;20599;-65
2022/08/21 04:11:18;;;;;;;5.23;4.80;;;14.70;99.90;;;;;;4982173;28;20939;-65
2022/08/21 04:13:44;;;;;;;4.40;4.10;;;14.60;99.90;;;;;;4988083;28;20454;-65
2022/08/21 04:16:09;;;;;;;4.50;3.87;;;14.50;99.90;;;;;;4984179;28;20188;-65
2022/08/21 04:18:35;;;;;;;4.37;3.97;;;14.40;99.90;;;;;;4980650;28;20200;-65
2022/08/21 04:21:02;;;;;;;4.50;4.10;;;14.40;99.90;;;;;;4983955;28;20303;-65
2022/08/21 04:23:28;;;;;;;4.10;3.70;;;14.30;99.90;;;;;;4985527;28;20203;-65
2022/08/21 04:25:55;;;;;;;4.93;4.40;;;14.30;99.90;;;;;;4981947;28;20797;-65
2022/08/21 04:28:23;;;;;;;4.37;3.97;;;14.30;99.90;;;;;;4981274;28;20594;-65
2022/08/21 04:30:50;;;;;;;4.77;4.27;;;14.30;99.90;;;;;;4980582;28;20928;-65
2022/08/21 04:33:16;;;;;;;6.97;4.93;;;14.30;99.90;;;;;;4986588;28;20939;-65
2022/08/21 04:35:42;;;;;;;6.17;4.27;;;14.20;99.90;;;;;;4981939;28;20447;-65
2022/08/21 04:38:08;;;;;;;5.03;4.60;;;14.10;99.90;;;;;;4977965;28;20215;-65
2022/08/21 04:40:33;;;;;;;7.97;4.40;;;14.00;99.90;;;;;;4987821;28;20467;-65
2022/08/21 04:43:03;;;;;;;5.20;4.73;;;14.10;99.90;;;;;;4989536;28;20294;-65
2022/08/21 04:45:33;;;;;;;7.70;5.20;;;14.30;99.90;;;;;;4990314;28;20298;-65
2022/08/21 04:48:00;;;;;;;7.40;5.10;;;14.40;99.90;;;;;;4981498;28;20482;-65
2022/08/21 04:50:47;;;;;;;5.20;4.17;;;14.50;99.90;;;;;;4985906;28;20463;-65
2022/08/21 04:53:35;;;;;;;6.70;4.27;;;14.60;99.90;;;;;;4984805;28;20530;-65
2022/08/21 04:56:14;;;;;;;4.90;4.40;;;14.70;99.90;;;;;;4976661;28;20441;-65
2022/08/21 04:58:41;;;;;;;4.43;4.07;;;14.80;99.90;;;;;;4984982;28;20520;-65
2022/08/21 05:01:11;;;;;;;7.83;4.50;;;14.90;99.90;;;;;;4983593;28;20541;-65
2022/08/21 05:03:37;;;;;;;4.83;3.87;;;14.90;99.90;;;;;;4987330;28;20458;-65
2022/08/21 05:06:06;;;;;;;6.60;4.60;;;15.00;99.90;;;;;;4984940;28;20447;-65
2022/08/21 05:08:32;;;;;;;5.97;4.33;;;15.20;99.90;;;;;;4987310;28;20462;-65
2022/08/21 05:10:58;;;;;;;4.60;4.20;;;15.30;99.90;;;;;;4982531;28;20465;-65
2022/08/21 05:13:23;;;;;;;5.10;4.70;;;15.30;99.90;;;;;;4982883;28;20506;-64
2022/08/21 05:15:49;;;;;;;6.63;4.37;;;15.40;99.90;;;;;;4987505;28;20186;-64
2022/08/21 05:18:15;;;;;;;3.90;3.57;;;15.50;99.90;;;;;;4984086;28;20238;-64
2022/08/21 05:20:40;;;;;;;5.87;5.40;;;15.70;99.90;;;;;;4986398;28;20183;-65
2022/08/21 05:23:11;;;;;;;4.93;4.33;;;15.90;99.90;;;;;;4988384;28;20214;-65
2022/08/21 05:25:37;;;;;;;5.13;4.40;;;16.00;99.90;;;;;;4988400;28;20664;-66
2022/08/21 05:28:02;;;;;;;5.00;4.23;;;16.20;99.90;;;;;;4985695;28;20438;-63
2022/08/21 05:30:28;;;;;;;5.67;3.97;;;16.20;99.90;;;;;;4986315;28;20664;-65
2022/08/21 05:32:58;;;;;;;5.73;4.10;;;16.30;99.90;;;;;;4977165;28;20192;-63
2022/08/21 05:35:24;;;;;;;7.40;3.90;;;16.30;99.90;;;;;;4976564;28;20188;-63
2022/08/21 05:37:50;;;;;;;5.07;4.67;;;16.50;99.90;;;;;;4987161;28;20434;-65
2022/08/21 05:40:15;;;;;;;5.97;3.50;;;16.80;99.90;;;;;;4986492;28;20470;-66
2022/08/21 05:42:41;;;;;;;4.77;4.33;;;17.00;99.90;;;;;;4984350;28;20206;-63
2022/08/21 05:45:07;;;;;;;5.00;4.50;;;17.10;99.90;;;;;;4983654;28;20291;-63
2022/08/21 05:47:32;;;;;;;5.00;4.40;;;17.30;99.90;;;;;;4978978;28;20529;-63
2022/08/21 05:49:57;;;;;;;6.43;4.53;;;17.40;99.90;;;;;;4985980;28;20689;-63
2022/08/21 05:52:23;;;;;;;6.17;4.77;;;17.60;99.90;;;;;;4988466;28;20175;-63
2022/08/21 05:54:49;;;;;;;4.37;3.90;;;17.80;99.90;;;;;;4984825;28;20196;-66
2022/08/21 05:57:15;;;;;;;4.47;4.03;;;18.00;99.90;;;;;;4990291;28;20254;-63
2022/08/21 05:59:40;;;;;;;5.43;4.67;;;18.10;99.90;;;;;;4988666;28;20561;-63
2022/08/21 06:02:07;;;;;;;6.70;4.33;;;18.20;99.90;;;;;;4985943;28;20203;-63
2022/08/21 06:04:37;;;;;;;5.80;4.20;;;18.30;99.90;;;;;;4989498;28;20167;-63
2022/08/21 06:07:03;;;;;;;8.97;4.37;;;18.50;99.90;;;;;;4982833;28;20488;-64
2022/08/21 06:09:28;;;;;;;5.40;4.43;;;18.60;99.90;;;;;;4986980;28;20965;-63
2022/08/21 06:11:54;;;;;;;4.50;3.97;;;18.70;99.90;;;;;;4987302;28;20518;-64
2022/08/21 06:14:19;;;;;;;4.93;4.43;;;18.90;99.90;;;;;;4991626;28;20245;-64
2022/08/21 06:16:45;;;;;;;4.23;3.83;;;19.00;99.90;;;;;;4987989;28;20219;-64
2022/08/21 06:19:10;;;;;;;4.47;4.07;;;19.30;99.90;;;;;;4984560;28;20215;-64
2022/08/21 06:21:36;;;;;;;4.23;3.93;;;19.50;99.90;;;;;;4988219;28;20210;-64
2022/08/21 06:24:01;;;;;;;4.40;4.00;;;19.70;99.90;;;;;;4991214;28;20171;-64
2022/08/21 06:26:27;;;;;;;4.60;4.13;;;19.90;99.90;;;;;;4986252;28;20175;-64
2022/08/21 06:28:53;;;;;;;5.87;3.97;;;19.90;99.90;;;;;;4988876;28;20709;-64
2022/08/21 06:31:23;;;;;;;7.30;4.10;;;20.10;99.90;;;;;;4983798;28;20989;-64
2022/08/21 06:33:49;;;;;;;4.20;3.57;;;20.40;99.90;;;;;;4982057;28;20481;-64
2022/08/21 06:36:15;;;;;;;4.83;3.77;;;20.60;99.90;;;;;;4988433;28;20833;-64
2022/08/21 06:38:41;;;;;;;4.23;3.73;;;20.70;99.90;;;;;;4990455;28;20458;-64
2022/08/21 06:41:07;;;;;;;9.20;4.97;;;20.90;99.90;;;;;;4983755;28;20462;-64
2022/08/21 06:43:33;;;;;;;5.13;3.57;;;21.00;99.90;;;;;;4984126;28;20203;-64
2022/08/21 06:45:59;;;;;;;4.63;3.80;;;21.00;99.90;;;;;;4987320;28;20435;-64
2022/08/21 06:48:24;;;;;;;6.73;4.60;;;21.10;99.90;;;;;;4978701;28;20287;-64
2022/08/21 06:50:50;;;;;;;5.80;4.57;;;21.20;99.90;;;;;;4979781;28;20592;-64
2022/08/21 06:53:18;;;;;;;4.50;4.10;;;21.30;99.90;;;;;;4987971;28;20179;-64
2022/08/21 06:55:44;;;;;;;6.17;4.40;;;21.50;99.90;;;;;;4982955;28;20211;-64
2022/08/21 06:58:10;;;;;;;6.47;4.43;;;21.70;99.90;;;;;;4984803;28;20458;-65
2022/08/21 07:00:40;;;;;;;6.77;5.37;;;21.80;99.90;;;;;;4985415;28;20673;-64
2022/08/21 07:03:05;;;;;;;10.97;5.13;;;21.90;99.90;;;;;;4985499;28;20460;-64
2022/08/21 07:05:31;;;;;;;7.50;4.60;;;21.90;99.90;;;;;;4984108;28;20443;-64
2022/08/21 07:07:57;;;;;;;9.70;4.87;;;21.80;99.90;;;;;;4984336;28;20238;-64
2022/08/21 07:10:26;;;;;;;4.67;4.00;;;22.00;99.90;;;;;;4990466;28;20183;-67
2022/08/21 07:12:54;;;;;;;4.50;4.10;;;22.30;99.90;;;;;;4983527;28;20238;-67
2022/08/21 07:15:20;;;;;;;4.83;4.33;;;22.50;99.90;;;;;;4988098;28;20447;-66
2022/08/21 07:17:45;;;;;;;7.97;4.43;;;22.80;99.90;;;;;;4975653;28;21070;-64
2022/08/21 07:20:11;;;;;;;5.80;4.07;;;22.90;99.90;;;;;;4984088;28;20243;-64
2022/08/21 07:22:38;;;;;;;5.97;5.00;;;23.10;99.90;;;;;;4989469;28;20665;-64
2022/08/21 07:25:05;;;;;;;7.30;5.33;;;23.10;99.90;;;;;;4981644;28;21430;-64
2022/08/21 07:27:31;;;;;;;6.17;3.70;;;23.30;99.90;;;;;;4990033;28;20462;-64
2022/08/21 07:29:56;;;;;;;5.47;4.97;;;23.40;99.90;;;;;;4983999;28;20474;-65
2022/08/21 07:32:22;;;;;;;11.43;4.70;;;23.50;99.90;;;;;;4980660;28;20519;-64
2022/08/21 07:34:48;;;;;;;7.43;4.57;;;23.60;99.90;;;;;;4989089;28;20175;-64
2022/08/21 07:37:13;;;;;;;6.47;4.80;;;23.60;99.90;;;;;;4979325;28;20201;-65
2022/08/21 07:39:39;;;;;;;5.83;4.43;;;23.60;99.90;;;;;;4983001;28;20620;-64
2022/08/21 07:42:04;;;;;;;8.03;4.17;;;23.70;99.80;;;;;;4990489;28;20195;-64
2022/08/21 07:44:30;;;;;;;7.63;4.60;;;23.70;98.90;;;;;;4984448;28;20233;-64
2022/08/21 07:46:55;;;;;;;8.07;4.20;;;23.60;99.20;;;;;;4984379;28;20180;-64
2022/08/21 07:49:21;;;;;;;4.73;3.77;;;23.30;99.40;;;;;;4984291;28;20238;-64
2022/08/21 07:51:46;;;;;;;5.83;4.50;;;23.40;99.70;;;;;;4982212;28;20275;-64
2022/08/21 07:54:12;;;;;;;4.30;3.97;;;23.80;99.10;;;;;;4981374;28;20235;-64
2022/08/21 07:56:37;;;;;;;7.60;4.77;;;24.00;98.70;;;;;;4983308;28;20191;-64
2022/08/21 07:59:03;;;;;;;7.00;4.77;;;24.20;98.10;;;;;;4987959;28;20685;-64
2022/08/21 08:01:29;;;;;;;5.83;4.60;;;24.50;97.30;;;;;;4986533;28;20188;-65
2022/08/21 08:03:55;;;;;;;5.30;4.70;;;24.70;96.70;;;;;;4984622;28;20210;-64
2022/08/21 08:06:21;;;;;;;4.80;4.20;;;24.80;96.10;;;;;;4981932;28;20179;-64
2022/08/21 08:08:47;;;;;;;7.30;4.80;;;24.70;95.50;;;;;;4985077;28;20520;-64
2022/08/21 08:11:16;;;;;;;9.57;4.30;;;24.80;95.80;;;;;;4978427;28;20184;-65
2022/08/21 08:13:48;;;;;;;6.23;4.30;;;24.80;95.60;;;;;;4988072;28;20175;-64
2022/08/21 08:16:14;;;;;;;5.03;4.53;;;25.00;95.50;;;;;;4985350;28;20443;-65
2022/08/21 08:18:41;;;;;;;7.80;4.47;;;24.60;95.40;;;;;;4987883;28;20971;-65
2022/08/21 08:21:08;;;;;;;5.30;4.63;;;24.50;95.50;;;;;;4980739;28;20458;-64
2022/08/21 08:23:33;;;;;;;5.43;4.50;;;24.70;95.60;;;;;;4986879;28;20462;-64
2022/08/21 08:26:00;;;;;;;9.30;4.90;;;25.10;95.10;;;;;;4987784;28;20609;-64
2022/08/21 08:28:26;;;;;;;5.37;4.77;;;25.40;94.00;;;;;;4987227;28;20195;-64
2022/08/21 08:30:52;;;;;;;6.50;4.60;;;25.70;93.30;;;;;;4980950;28;20431;-64
2022/08/21 08:33:18;;;;;;;5.47;4.97;;;25.80;93.00;;;;;;4978047;28;20543;-64
2022/08/21 08:35:47;;;;;;;4.30;3.90;;;26.00;92.20;;;;;;4985883;28;20198;-64
2022/08/21 08:38:18;;;;;;;5.77;4.23;;;25.90;91.60;;;;;;4984804;28;20238;-64
2022/08/21 08:40:47;;;;;;;3.90;3.60;;;26.00;91.20;;;;;;4988000;28;20439;-64
2022/08/21 08:43:13;;;;;;;5.60;4.90;;;26.20;91.10;;;;;;4985363;28;20466;-64
2022/08/21 08:45:42;;;;;;;6.57;5.00;;;26.40;89.80;;;;;;4985754;28;20819;-64
2022/08/21 08:48:12;;;;;;;12.43;4.90;;;26.50;87.50;;;;;;4982836;28;20206;-64
2022/08/21 08:50:57;;;;;;;4.90;4.40;;;26.20;86.70;;;;;;4983732;28;20945;-64
2022/08/21 08:53:31;;;;;;;7.53;5.00;;;25.80;87.10;;;;;;4983804;28;21093;-64
2022/08/21 08:55:59;;;;;;;7.20;5.60;;;26.00;85.80;;;;;;4975330;28;20814;-64
2022/08/21 08:58:32;;;;;;;7.63;4.23;;;26.40;86.60;;;;;;4980855;28;20568;-64
2022/08/21 09:00:58;;;;;;;5.30;4.57;;;26.40;84.20;;;;;;4977311;28;20444;-64
2022/08/21 09:03:25;;;;;;;4.93;4.50;;;25.90;85.20;;;;;;4979395;28;20880;-64
2022/08/21 09:05:59;;;;;;;5.47;4.20;;;25.90;86.90;;;;;;4984148;28;20172;-64
2022/08/21 09:08:27;;;;;;;5.10;4.70;;;26.40;85.50;;;;;;4987431;28;21041;-64
2022/08/21 09:11:22;;;;;;;5.13;4.70;;;26.50;84.80;;;;;;4974547;28;20481;-64
2022/08/21 09:14:07;;;;;;;6.63;5.27;;;27.00;85.00;;;;;;4985878;28;20467;-64
2022/08/21 09:16:35;;;;;;;4.67;4.30;;;27.40;82.20;;;;;;4988078;28;20994;-64
2022/08/21 09:19:15;;;;;;;5.13;4.63;;;28.20;79.40;;;;;;4986774;28;20450;-64
2022/08/21 09:22:16;;;;;;;6.07;4.87;;;28.10;79.40;;;;;;4981571;28;20780;-64
2022/08/21 09:25:01;;;;;;;6.33;4.93;;;28.70;77.20;;;;;;4980556;28;20481;-64
2022/08/21 09:27:26;;;;;;;4.67;4.27;;;28.80;73.40;;;;;;4990093;28;20438;-64
2022/08/21 09:29:54;;;;;;;7.63;4.30;;;29.00;73.90;;;;;;4985983;28;20454;-64
2022/08/21 09:32:30;;;;;;;4.90;4.40;;;30.00;73.10;;;;;;4980074;28;21061;-64
2022/08/21 09:34:58;;;;;;;5.73;4.67;;;30.90;68.80;;;;;;4978477;28;20881;-64
2022/08/21 09:37:25;;;;;;;5.57;4.90;;;31.70;66.10;;;;;;4990975;28;20434;-64
2022/08/21 09:39:51;;;;;;;5.90;5.03;;;31.80;63.90;;;;;;4986573;28;20486;-64
2022/08/21 09:42:31;;;;;;;5.27;4.00;;;32.20;62.00;;;;;;4982259;28;20463;-65
2022/08/21 09:45:16;;;;;;;4.90;4.23;;;32.50;61.00;;;;;;4985692;28;20641;-64
2022/08/21 09:47:43;;;;;;;6.07;5.10;;;31.70;59.90;;;;;;4986403;28;20784;-64
2022/08/21 09:50:20;;;;;;;5.07;4.63;;;33.10;58.30;;;;;;4986133;28;20850;-64
2022/08/21 09:52:54;;;;;;;11.87;4.43;;;33.70;57.00;;;;;;4984680;28;20435;-64
2022/08/21 09:58:19;;;;;;;5.00;4.57;;;34.50;53.70;;;;;;4984646;28;20957;-64
2022/08/21 10:00:47;;;;;;;5.43;4.93;;;34.80;53.30;;;;;;4992418;28;20840;-64
2022/08/21 10:03:21;;;;;;;8.90;5.17;;;33.20;53.20;;;;;;4986661;28;20458;-65
2022/08/21 10:05:56;;;;;;;8.10;7.37;;;34.10;54.10;;;;;;4982762;28;20804;-65
2022/08/21 10:08:24;;;;;;;5.90;4.40;;;35.90;52.00;;;;;;4983921;28;20451;-65
2022/08/21 10:10:54;;;;;;;7.17;4.90;;;37.00;50.60;;;;;;4986208;28;20948;-65
2022/08/21 10:13:55;;;;;;;4.50;4.07;;;38.10;48.90;;;;;;4989361;28;20444;-65
2022/08/21 10:16:49;;;;;;;4.87;4.10;;;37.60;48.10;;;;;;4980640;28;20445;-65
2022/08/21 10:19:36;;;;;;;5.93;4.40;;;38.40;47.40;;;;;;4985777;28;20793;-65
2022/08/21 10:22:29;;;;;;;6.27;4.90;;;38.90;46.10;;;;;;4982357;28;20860;-64
2022/08/21 10:25:25;;;;;;;6.13;4.67;;;40.10;46.60;;;;;;4982195;28;20490;-65
2022/08/21 10:28:24;;;;;;;4.90;4.50;;;39.70;46.00;;;;;;4981556;28;20430;-65
2022/08/21 10:30:52;;;;;;;4.63;4.30;;;39.50;45.60;;;;;;4979613;28;20434;-65
2022/08/21 10:33:41;;;;;;;5.53;5.10;;;39.50;45.80;;;;;;4981069;28;20442;-65
2022/08/21 10:36:10;;;;;;;4.63;4.23;;;39.20;45.70;;;;;;4971284;28;20443;-65
2022/08/21 10:38:55;;;;;;;8.90;4.40;;;38.80;44.60;;;;;;4986210;28;20984;-64
2022/08/21 10:41:58;;;;;;;5.87;4.20;;;37.40;44.80;;;;;;4986498;28;20439;-64
2022/08/21 10:45:01;;;;;;;9.33;5.33;;;34.10;48.20;;;;;;4979313;28;20453;-64
2022/08/21 10:47:37;;;;;;;11.13;5.73;;;32.60;50.30;;;;;;4978788;28;20470;-64
2022/08/21 10:50:36;;;;;;;6.00;4.80;;;31.00;52.10;;;;;;4987107;28;20955;-64
2022/08/21 10:53:13;;;;;;;5.33;4.77;;;30.20;53.40;;;;;;4986903;28;20440;-64
2022/08/21 10:55:47;;;;;;;4.87;4.40;;;31.60;52.40;;;;;;4985301;28;20427;-64
2022/08/21 10:58:28;;;;;;;5.00;4.50;;;33.00;50.50;;;;;;4988638;28;20470;-65
2022/08/21 11:01:10;;;;;;;5.70;4.67;;;35.80;48.50;;;;;;4983188;28;20440;-65
2022/08/21 11:03:46;;;;;;;5.83;4.57;;;38.30;45.90;;;;;;4982906;28;20501;-64
2022/08/21 11:06:20;;;;;;;5.57;4.57;;;38.80;44.10;;;;;;4986785;28;20441;-64
2022/08/21 11:08:52;;;;;;;4.67;4.13;;;38.90;44.20;;;;;;4981407;28;20465;-65
2022/08/21 11:11:20;;;;;;;5.27;4.83;;;39.00;44.00;;;;;;4985653;28;20442;-65
2022/08/21 11:13:51;;;;;;;6.47;4.57;;;39.40;43.70;;;;;;4988723;28;21257;-65
2022/08/21 11:16:43;;;;;;;7.07;4.63;;;39.00;43.70;;;;;;4986313;28;20446;-64
2022/08/21 11:19:19;;;;;;;4.77;4.30;;;37.00;44.50;;;;;;4979790;28;20567;-65
2022/08/21 11:21:48;;;;;;;4.70;4.30;;;39.00;44.20;;;;;;4987847;28;20449;-65
2022/08/21 11:24:45;;;;;;;6.70;5.40;;;41.10;43.50;;;;;;4986540;28;20441;-65
2022/08/21 11:27:24;;;;;;;4.60;4.27;;;42.30;45.50;;;;;;4983948;28;20821;-65
2022/08/21 11:29:53;;;;;;;7.47;4.80;;;42.80;44.50;;;;;;4983715;28;20457;-65
2022/08/21 11:32:56;;;;;;;5.97;5.27;;;40.30;45.20;;;;;;4986815;28;20466;-64
2022/08/21 11:35:37;;;;;;;7.73;6.00;;;37.40;46.90;;;;;;4984691;28;20437;-64
2022/08/21 11:38:38;;;;;;;6.70;4.33;;;37.50;47.20;;;;;;4988736;28;20439;-65
2022/08/21 11:41:34;;;;;;;6.03;5.10;;;36.30;47.80;;;;;;4976224;28;20441;-64
2022/08/21 11:44:16;;;;;;;5.33;4.93;;;34.40;48.90;;;;;;4980121;28;20779;-64
2022/08/21 11:46:55;;;;;;;5.97;4.90;;;33.40;49.50;;;;;;4993330;28;20410;-64
2022/08/21 11:49:35;;;;;;;5.23;4.83;;;32.90;50.50;;;;;;4981415;28;20521;-64
2022/08/21 11:52:24;;;;;;;5.53;4.53;;;32.20;51.00;;;;;;4978883;28;20963;-64
2022/08/21 11:55:14;;;;;;;5.00;4.60;;;32.60;50.90;;;;;;4987803;28;20431;-64
2022/08/21 11:57:48;;;;;;;5.20;4.70;;;34.80;49.50;;;;;;4986069;28;20439;-64
2022/08/21 12:00:22;;;;;;;5.10;4.10;;;38.30;46.10;;;;;;4982146;28;20455;-64
2022/08/21 12:02:54;;;;;;;6.03;5.10;;;39.70;44.40;;;;;;4988139;28;20456;-64
2022/08/21 12:05:36;;;;;;;5.27;4.23;;;38.10;45.30;;;;;;4984606;28;20435;-64
2022/08/21 12:08:24;;;;;;;5.70;5.13;;;37.80;45.30;;;;;;4980733;28;20459;-64
2022/08/21 12:11:03;;;;;;;4.83;4.50;;;39.20;44.40;;;;;;4982879;28;20438;-64
2022/08/21 12:13:32;;;;;;;5.13;4.73;;;37.90;43.80;;;;;;4983404;28;20548;-64
2022/08/21 12:16:13;;;;;;;4.50;4.20;;;36.40;44.80;;;;;;4983751;28;20440;-64
2022/08/21 12:18:40;;;;;;;5.57;5.10;;;34.30;47.20;;;;;;4984701;28;20457;-64
2022/08/21 12:21:25;;;;;;;5.93;4.87;;;33.90;47.40;;;;;;4978352;28;21036;-64
2022/08/21 12:24:16;;;;;;;8.23;4.70;;;33.00;47.90;;;;;;4975590;28;20442;-64
2022/08/21 12:26:57;;;;;;;5.50;4.93;;;31.90;48.80;;;;;;4983204;28;20471;-64
2022/08/21 12:29:23;;;;;;;7.37;5.07;;;31.20;50.10;;;;;;4975855;28;20920;-64
2022/08/21 12:31:54;;;;;;;6.30;4.70;;;30.60;50.60;;;;;;4986107;28;20481;-64
2022/08/21 12:34:23;;;;;;;7.20;4.67;;;30.60;51.00;;;;;;4979202;28;20427;-64
2022/08/21 12:36:57;;;;;;;4.90;4.50;;;30.70;50.80;;;;;;4978075;28;20854;-64
2022/08/21 12:39:27;;;;;;;7.20;4.30;;;30.70;51.20;;;;;;4984991;28;20446;-64
2022/08/21 12:41:58;;;;;;;4.90;4.33;;;31.40;49.90;;;;;;4981743;28;20446;-64
2022/08/21 12:44:45;;;;;;;5.57;5.03;;;31.00;50.30;;;;;;4980563;28;20463;-64
2022/08/21 12:47:31;;;;;;;6.33;5.73;;;30.00;51.30;;;;;;4976671;28;20427;-64
2022/08/21 12:50:06;;;;;;;6.40;5.80;;;29.90;52.10;;;;;;4968151;28;20450;-64
2022/08/21 12:52:48;;;;;;;4.97;4.47;;;29.60;52.00;;;;;;4988696;28;20481;-64
2022/08/21 12:55:16;;;;;;;5.00;4.50;;;29.60;52.10;;;;;;4978164;28;20441;-64
2022/08/21 12:57:42;;;;;;;4.90;4.50;;;29.50;51.90;;;;;;4982023;28;20966;-64
2022/08/21 13:00:12;;;;;;;6.83;4.27;;;29.90;52.00;;;;;;5019840;23;20486;-66
2022/08/21 13:02:46;;;;;;;6.17;4.00;;;31.50;50.50;;;;;;5007022;28;20202;-66
2022/08/21 13:05:15;;;;;;;5.60;4.40;;;33.60;47.90;;;;;;5009258;28;20520;-66